Ship Status Report: callsign SVAW180

sailwx.info

Track history (hours):
 
Tides and Currents Weather Stations Pressure Air Temp Water Temp Dewpoint Dewpoint Depression Visibility Wind Speed Wind Dir Waves Ship Positions

Callsign SVAW180 (name unknown)

Last reported at 2017-Aug-22 00:00 UTC. Time now 2017-Sep-22 10:11 UTC.
Position N 33°32' W 118°48'.
Warning: this ship's position is 31 days out of date.

Date/timePositionNaut miles runAvg speedWind from/ knotsBaromVisibWave heightAir tempDewpointWater temp
2017-Aug-22 00:00N 33°32' W 118°48'3921.6
2017-Aug-21 22:12N 32°58' W 118°26'522.4
2017-Aug-21 21:57N 32°53' W 118°22'2418.8
2017-Aug-21 20:39N 32°31' W 118°35'0 1.1
2017-Aug-21 20:16N 32°31' W 118°35'413.4
2017-Aug-21 19:59N 32°33' W 118°32'714.7
2017-Aug-21 19:30N 32°34' W 118°24'714.2
2017-Aug-21 19:00N 32°36' W 118°15'612.1
2017-Aug-21 18:30N 32°38' W 118°09'4 8.4
2017-Aug-21 18:00N 32°41' W 118°06'2 4.1
2017-Aug-21 17:31N 32°42' W 118°08'1 1.8
2017-Aug-21 16:49N 32°43' W 118°09'3 2.9
2017-Aug-21 15:53N 32°44' W 118°12'0 0.4
2017-Aug-21 15:26N 32°44' W 118°12'8 0.4
2017-Aug-20 21:33N 32°49' W 118°18'316.2
2017-Aug-20 21:21N 32°47' W 118°21'1211.4
2017-Aug-20 20:19N 32°39' W 118°32'3 8.7
2017-Aug-20 19:59N 32°37' W 118°35'5 5.0
2017-Aug-20 18:56N 32°35' W 118°40'23 5.0
2017-Aug-20 14:23N 32°26' W 119°05'0 0.0
2017-Aug-20 10:17N 32°26' W 119°05'0 0.0
2017-Aug-20 08:08N 32°26' W 119°05'0 0.0
2017-Aug-20 07:50N 32°26' W 119°05'0 0.0
2017-Aug-20 07:23N 32°26' W 119°05'0 0.0
2017-Aug-20 07:00N 32°26' W 119°05'0 0.0
2017-Aug-20 06:30N 32°26' W 119°05'0 0.0
2017-Aug-20 05:59N 32°26' W 119°05'0 0.0
2017-Aug-20 05:28N 32°26' W 119°05'0 0.0
2017-Aug-20 04:55N 32°26' W 119°05'0 0.0
2017-Aug-20 04:29N 32°26' W 119°05'0 0.0
2017-Aug-20 04:00N 32°26' W 119°05'3 6.5
2017-Aug-20 03:30N 32°27' W 119°01'714.5
2017-Aug-20 03:01N 32°28' W 118°53'713.8
2017-Aug-20 02:29N 32°30' W 118°45'2 4.0
2017-Aug-20 02:01N 32°30' W 118°42'2 4.0
2017-Aug-20 01:30N 32°30' W 118°40'5 3.5
2017-Aug-20 00:00N 32°32' W 118°46'3 5.1
2017-Aug-19 23:30N 32°31' W 118°43'13 0.6
2017-Aug-19 00:03N 32°26' W 118°58'010.2
2017-Aug-19 00:00N 32°26' W 118°57'611.5
2017-Aug-18 23:30N 32°27' W 118°51'3 5.1
2017-Aug-18 23:00N 32°25' W 118°48'2 4.9
2017-Aug-18 22:30N 32°23' W 118°48'3 5.0
2017-Aug-18 21:59N 32°20' W 118°48'2 5.0
2017-Aug-18 21:30N 32°18' W 118°48'2 4.6
2017-Aug-18 21:00N 32°20' W 118°49'3 5.5
2017-Aug-18 20:30N 32°22' W 118°47'4 8.2
2017-Aug-18 20:00N 32°26' W 118°45'714.6
2017-Aug-18 19:31N 32°32' W 118°41'4 7.2
2017-Aug-18 19:00N 32°35' W 118°38'2 4.1
2017-Aug-18 18:30N 32°36' W 118°36'3 5.0
2017-Aug-18 18:00N 32°39' W 118°36'19 1.2
2017-Aug-18 01:52N 32°48' W 118°15'1 3.4
2017-Aug-18 01:30N 32°47' W 118°15'4 8.0
2017-Aug-18 01:00N 32°43' W 118°15'2 4.9
2017-Aug-18 00:30N 32°42' W 118°12'2 4.9
2017-Aug-18 00:00N 32°42' W 118°10'3 5.0
2017-Aug-17 23:30N 32°42' W 118°07'2 5.0
2017-Aug-17 23:00N 32°42' W 118°04'1 2.8
2017-Aug-17 22:30N 32°41' W 118°05'3 6.7
2017-Aug-17 22:00N 32°40' W 118°09'3 6.9
2017-Aug-17 21:30N 32°39' W 118°12'9 8.6
2017-Aug-17 20:25N 32°38' W 118°23'3 7.1
2017-Aug-17 20:00N 32°39' W 118°21'4 8.0
2017-Aug-17 19:30N 32°41' W 118°16'4 8.0
2017-Aug-17 19:00N 32°43' W 118°12'5 8.5
2017-Aug-17 18:26N 32°48' W 118°15'  
Track history (hours):
 
Tides and Currents Weather Stations Pressure Air Temp Water Temp Dewpoint Dewpoint Depression Visibility Wind Speed Wind Dir Waves Ship Positions

Callsign SVAW180 (name unknown)

Last reported at 2017-Aug-22 00:00 UTC. Time now 2017-Sep-22 10:11 UTC.
Position N 33°32' W 118°48'.
Warning: this ship's position is 31 days out of date.

Date/timePositionNaut miles runAvg speedWind from/ knotsBaromVisibWave heightAir tempDewpointWater temp
2017-Aug-22 00:00N 33°32' W 118°48'3921.6
2017-Aug-21 22:12N 32°58' W 118°26'522.4
2017-Aug-21 21:57N 32°53' W 118°22'2418.8
2017-Aug-21 20:39N 32°31' W 118°35'0 1.1
2017-Aug-21 20:16N 32°31' W 118°35'413.4
2017-Aug-21 19:59N 32°33' W 118°32'714.7
2017-Aug-21 19:30N 32°34' W 118°24'714.2
2017-Aug-21 19:00N 32°36' W 118°15'612.1
2017-Aug-21 18:30N 32°38' W 118°09'4 8.4
2017-Aug-21 18:00N 32°41' W 118°06'2 4.1
2017-Aug-21 17:31N 32°42' W 118°08'1 1.8
2017-Aug-21 16:49N 32°43' W 118°09'3 2.9
2017-Aug-21 15:53N 32°44' W 118°12'0 0.4
2017-Aug-21 15:26N 32°44' W 118°12'8 0.4
2017-Aug-20 21:33N 32°49' W 118°18'316.2
2017-Aug-20 21:21N 32°47' W 118°21'1211.4
2017-Aug-20 20:19N 32°39' W 118°32'3 8.7
2017-Aug-20 19:59N 32°37' W 118°35'5 5.0
2017-Aug-20 18:56N 32°35' W 118°40'23 5.0
2017-Aug-20 14:23N 32°26' W 119°05'0 0.0
2017-Aug-20 10:17N 32°26' W 119°05'0 0.0
2017-Aug-20 08:08N 32°26' W 119°05'0 0.0
2017-Aug-20 07:50N 32°26' W 119°05'0 0.0
2017-Aug-20 07:23N 32°26' W 119°05'0 0.0
2017-Aug-20 07:00N 32°26' W 119°05'0 0.0
2017-Aug-20 06:30N 32°26' W 119°05'0 0.0
2017-Aug-20 05:59N 32°26' W 119°05'0 0.0
2017-Aug-20 05:28N 32°26' W 119°05'0 0.0
2017-Aug-20 04:55N 32°26' W 119°05'0 0.0
2017-Aug-20 04:29N 32°26' W 119°05'0 0.0
2017-Aug-20 04:00N 32°26' W 119°05'3 6.5
2017-Aug-20 03:30N 32°27' W 119°01'714.5
2017-Aug-20 03:01N 32°28' W 118°53'713.8
2017-Aug-20 02:29N 32°30' W 118°45'2 4.0
2017-Aug-20 02:01N 32°30' W 118°42'2 4.0
2017-Aug-20 01:30N 32°30' W 118°40'5 3.5
2017-Aug-20 00:00N 32°32' W 118°46'3 5.1
2017-Aug-19 23:30N 32°31' W 118°43'13 0.6
2017-Aug-19 00:03N 32°26' W 118°58'010.2
2017-Aug-19 00:00N 32°26' W 118°57'611.5
2017-Aug-18 23:30N 32°27' W 118°51'3 5.1
2017-Aug-18 23:00N 32°25' W 118°48'2 4.9
2017-Aug-18 22:30N 32°23' W 118°48'3 5.0
2017-Aug-18 21:59N 32°20' W 118°48'2 5.0
2017-Aug-18 21:30N 32°18' W 118°48'2 4.6
2017-Aug-18 21:00N 32°20' W 118°49'3 5.5
2017-Aug-18 20:30N 32°22' W 118°47'4 8.2
2017-Aug-18 20:00N 32°26' W 118°45'714.6
2017-Aug-18 19:31N 32°32' W 118°41'4 7.2
2017-Aug-18 19:00N 32°35' W 118°38'2 4.1
2017-Aug-18 18:30N 32°36' W 118°36'3 5.0
2017-Aug-18 18:00N 32°39' W 118°36'19 1.2
2017-Aug-18 01:52N 32°48' W 118°15'1 3.4
2017-Aug-18 01:30N 32°47' W 118°15'4 8.0
2017-Aug-18 01:00N 32°43' W 118°15'2 4.9
2017-Aug-18 00:30N 32°42' W 118°12'2 4.9
2017-Aug-18 00:00N 32°42' W 118°10'3 5.0
2017-Aug-17 23:30N 32°42' W 118°07'2 5.0
2017-Aug-17 23:00N 32°42' W 118°04'1 2.8
2017-Aug-17 22:30N 32°41' W 118°05'3 6.7
2017-Aug-17 22:00N 32°40' W 118°09'3 6.9
2017-Aug-17 21:30N 32°39' W 118°12'9 8.6
2017-Aug-17 20:25N 32°38' W 118°23'3 7.1
2017-Aug-17 20:00N 32°39' W 118°21'4 8.0
2017-Aug-17 19:30N 32°41' W 118°16'4 8.0
2017-Aug-17 19:00N 32°43' W 118°12'5 8.5
2017-Aug-17 18:26N 32°48' W 118°15'  

Dump ship's entire track history